Time;durP1;ratioP1;P1;durP2;ratioP2;P2;SDS_P1;SDS_P2;PMS_P1;PMS_P2;Temp;Humidity;BMP_temperature;BMP_pressure;BME280_temperature;BME280_humidity;BME280_pressure;Samples;Min_cycle;Max_cycle;Signal;HPM_P1;HPM_P2
2022/04/17 00:01:32;;;;;;;9.13;7.20;;;;;;;6.02;100.00;96441.44;5096292;28;20194;-62
2022/04/17 00:03:57;;;;;;;11.77;7.30;;;;;;;6.06;100.00;96441.53;5096127;28;20281;-62
2022/04/17 00:06:22;;;;;;;10.73;7.13;;;;;;;5.96;100.00;96436.63;5096060;28;20276;-62
2022/04/17 00:08:48;;;;;;;8.97;6.90;;;;;;;5.86;100.00;96437.13;5096338;28;20221;-63
2022/04/17 00:11:14;;;;;;;10.40;7.57;;;;;;;5.92;100.00;96435.75;5096128;28;20187;-62
2022/04/17 00:13:39;;;;;;;8.13;6.90;;;;;;;6.05;100.00;96424.47;5096513;28;20190;-62
2022/04/17 00:16:05;;;;;;;8.80;6.33;;;;;;;6.05;100.00;96431.84;5096144;28;20187;-57
2022/04/17 00:18:30;;;;;;;10.40;6.50;;;;;;;5.94;100.00;96428.84;5096923;28;20213;-61
2022/04/17 00:20:56;;;;;;;10.00;6.80;;;;;;;5.83;100.00;96429.72;5095969;28;20277;-52
2022/04/17 00:23:21;;;;;;;8.60;6.80;;;;;;;5.80;100.00;96433.84;5096026;28;20238;-52
2022/04/17 00:25:47;;;;;;;8.00;6.23;;;;;;;5.73;100.00;96427.47;5096054;28;20255;-53
2022/04/17 00:28:12;;;;;;;9.33;6.70;;;;;;;5.75;100.00;96425.19;5095745;28;20217;-52
2022/04/17 00:30:38;;;;;;;7.80;6.10;;;;;;;5.87;100.00;96417.81;5095864;28;20197;-52
2022/04/17 00:33:04;;;;;;;7.83;6.33;;;;;;;5.74;100.00;96418.19;5095981;28;20188;-53
2022/04/17 00:35:29;;;;;;;9.47;6.87;;;;;;;5.72;100.00;96420.47;5095982;28;20278;-61
2022/04/17 00:37:54;;;;;;;8.43;6.77;;;;;;;5.76;100.00;96415.94;5096269;28;20191;-62
2022/04/17 00:40:20;;;;;;;7.73;5.83;;;;;;;5.71;100.00;96416.16;5095705;28;20186;-62
2022/04/17 00:42:45;;;;;;;6.97;6.10;;;;;;;5.73;100.00;96416.63;5095793;28;20196;-62
2022/04/17 00:45:11;;;;;;;7.30;5.77;;;;;;;5.61;100.00;96416.69;5096887;28;20190;-64
2022/04/17 00:47:36;;;;;;;9.10;6.13;;;;;;;5.66;100.00;96406.41;5099172;28;20217;-64
2022/04/17 00:50:02;;;;;;;7.47;5.77;;;;;;;5.84;100.00;96409.59;5099262;28;20300;-65
2022/04/17 00:52:28;;;;;;;6.93;6.00;;;;;;;5.61;100.00;96403.16;5099270;28;20199;-62
2022/04/17 00:54:54;;;;;;;6.83;5.70;;;;;;;5.65;100.00;96406.75;5099318;28;20184;-57
2022/04/17 00:57:20;;;;;;;10.03;5.67;;;;;;;5.61;100.00;96403.91;5099256;28;20187;-60
2022/04/17 00:59:47;;;;;;;6.80;5.87;;;;;;;5.68;100.00;96397.94;5099024;28;20186;-60
2022/04/17 01:02:16;;;;;;;6.03;4.93;;;;;;;5.56;100.00;96400.66;5099066;28;20191;-60
2022/04/17 01:04:43;;;;;;;7.03;5.30;;;;;;;5.48;100.00;96399.72;5099102;28;20191;-60
2022/04/17 01:07:09;;;;;;;7.23;5.20;;;;;;;5.59;100.00;96402.69;5099009;28;20212;-60
2022/04/17 01:09:35;;;;;;;8.07;5.40;;;;;;;5.53;100.00;96393.22;5098895;28;20201;-61
2022/04/17 01:12:00;;;;;;;6.37;5.00;;;;;;;5.68;100.00;96392.50;5099000;28;20195;-62
2022/04/17 01:14:30;;;;;;;6.33;5.10;;;;;;;5.57;100.00;96394.16;5098946;28;20186;-62
2022/04/17 01:16:55;;;;;;;9.30;5.80;;;;;;;5.42;100.00;96389.44;5098848;28;20236;-63
2022/04/17 01:19:23;;;;;;;7.27;5.63;;;;;;;5.42;100.00;96395.66;5099346;28;20285;-62
2022/04/17 01:21:49;;;;;;;7.63;5.73;;;;;;;5.37;100.00;96387.00;5098945;28;20187;-63
2022/04/17 01:27:03;;;;;;;6.43;5.50;;;;;;;5.57;100.00;96375.94;5117039;28;20357;-63
2022/04/17 01:29:36;;;;;;;7.53;5.33;;;;;;;5.66;100.00;96375.78;5099125;28;20226;-54
2022/04/17 01:32:04;;;;;;;7.33;5.60;;;;;;;5.51;100.00;96376.56;5098964;28;20205;-55
2022/04/17 01:34:29;;;;;;;6.40;5.27;;;;;;;5.62;100.00;96383.03;5098385;28;20242;-55
2022/04/17 01:36:55;;;;;;;6.27;5.57;;;;;;;5.64;100.00;96375.34;5098994;28;20270;-55
2022/04/17 01:39:21;;;;;;;6.50;5.13;;;;;;;5.55;100.00;96375.53;5098496;28;20186;-53
2022/04/17 01:41:48;;;;;;;6.77;5.43;;;;;;;5.58;100.00;96382.94;5098481;28;20194;-55
2022/04/17 01:44:16;;;;;;;9.37;6.17;;;;;;;5.47;100.00;96372.97;5098544;28;20197;-56
2022/04/17 01:46:42;;;;;;;8.47;6.10;;;;;;;5.52;100.00;96372.69;5098313;28;20195;-56
2022/04/17 01:49:07;;;;;;;7.90;5.70;;;;;;;5.51;100.00;96368.44;5098088;28;20174;-59
2022/04/17 01:51:37;;;;;;;8.70;6.00;;;;;;;5.63;100.00;96365.66;5098239;28;20242;-60
2022/04/17 01:54:03;;;;;;;7.97;6.50;;;;;;;5.46;100.00;96368.69;5098306;28;20225;-61
2022/04/17 01:56:28;;;;;;;7.30;5.63;;;;;;;5.39;100.00;96368.50;5098135;28;20266;-60
2022/04/17 01:58:54;;;;;;;6.27;5.57;;;;;;;5.55;100.00;96361.19;5098569;28;20251;-61
2022/04/17 02:01:19;;;;;;;7.00;5.77;;;;;;;5.57;100.00;96348.09;5098968;28;20199;-59
2022/04/17 02:03:44;;;;;;;8.50;5.80;;;;;;;5.46;100.00;96357.84;5098091;28;20252;-60
2022/04/17 02:06:10;;;;;;;7.23;5.60;;;;;;;5.55;100.00;96361.97;5098261;28;20197;-65
2022/04/17 02:08:35;;;;;;;7.00;5.70;;;;;;;5.61;100.00;96348.97;5098423;28;20218;-63
2022/04/17 02:11:00;;;;;;;6.63;5.43;;;;;;;5.56;100.00;96346.50;5098433;28;20195;-57
2022/04/17 02:13:27;;;;;;;6.73;5.27;;;;;;;5.53;100.00;96341.78;5098095;28;20244;-57
2022/04/17 02:15:53;;;;;;;9.00;5.90;;;;;;;5.47;100.00;96343.19;5097897;28;20198;-54
2022/04/17 02:18:20;;;;;;;9.50;5.97;;;;;;;5.39;100.00;96346.84;5098392;28;20182;-54
2022/04/17 02:20:47;;;;;;;7.63;5.23;;;;;;;5.46;100.00;96347.03;5098288;28;20190;-57
2022/04/17 02:23:13;;;;;;;7.93;6.00;;;;;;;5.40;100.00;96340.28;5097865;28;20200;-56
2022/04/17 02:25:38;;;;;;;7.17;5.60;;;;;;;5.39;100.00;96336.00;5097755;28;20209;-57
2022/04/17 02:28:04;;;;;;;6.83;6.10;;;;;;;5.17;100.00;96331.91;5097947;28;20231;-57
2022/04/17 02:30:29;;;;;;;7.63;5.83;;;;;;;5.35;100.00;96335.13;5097699;28;20185;-57
2022/04/17 02:32:54;;;;;;;10.90;5.57;;;;;;;5.32;100.00;96330.41;5097623;28;20222;-53
2022/04/17 02:35:20;;;;;;;9.73;6.23;;;;;;;5.37;100.00;96338.25;5097456;28;20194;-54
2022/04/17 02:37:45;;;;;;;7.57;6.47;;;;;;;5.42;100.00;96335.28;5097618;28;20229;-53
2022/04/17 02:40:11;;;;;;;8.43;6.27;;;;;;;5.35;100.00;96335.13;5097660;28;20197;-54
2022/04/17 02:42:36;;;;;;;7.70;5.97;;;;;;;5.35;100.00;96341.31;5097576;28;20198;-61
2022/04/17 02:45:01;;;;;;;8.40;5.90;;;;;;;5.36;100.00;96342.09;5097714;28;20227;-63
2022/04/17 02:50:15;;;;;;;7.93;6.20;;;;;;;5.27;100.00;96336.84;5115864;28;20198;-62
2022/04/17 02:52:41;;;;;;;7.73;6.20;;;;;;;5.33;100.00;96338.16;5097804;28;20575;-62
2022/04/17 02:55:10;;;;;;;7.67;6.13;;;;;;;5.32;100.00;96335.81;5115175;28;20193;-62
2022/04/17 02:57:36;;;;;;;6.93;5.87;;;;;;;5.33;100.00;96323.84;5097763;28;20217;-62
2022/04/17 03:00:06;;;;;;;7.83;6.20;;;;;;;5.25;100.00;96328.25;5097143;28;20214;-62
2022/04/17 03:05:42;;;;;;;7.20;5.80;;;;;;;5.21;100.00;96318.50;5115720;28;20191;-64
2022/04/17 03:08:13;;;;;;;8.67;6.63;;;;;;;5.17;100.00;96312.19;5113697;28;20305;-64
2022/04/17 03:10:41;;;;;;;7.43;6.03;;;;;;;5.25;100.00;96312.00;5096998;28;20208;-64
2022/04/17 03:13:07;;;;;;;8.37;6.00;;;;;;;5.14;100.00;96307.47;5097096;28;20190;-64
2022/04/17 03:15:34;;;;;;;8.13;6.70;;;;;;;5.23;100.00;96305.38;5097259;28;20182;-64
2022/04/17 03:17:59;;;;;;;8.07;6.53;;;;;;;5.07;100.00;96312.69;5096678;28;20195;-64
2022/04/17 03:20:26;;;;;;;9.87;6.50;;;;;;;5.05;100.00;96310.31;5097308;28;20182;-59
2022/04/17 03:22:51;;;;;;;9.37;6.40;;;;;;;5.09;100.00;96305.00;5097310;28;20189;-57
2022/04/17 03:25:17;;;;;;;9.47;6.07;;;;;;;5.04;100.00;96308.75;5096680;28;20197;-56
2022/04/17 03:27:45;;;;;;;8.57;6.27;;;;;;;4.94;100.00;96305.72;5097128;28;20258;-56
2022/04/17 03:30:10;;;;;;;10.80;7.00;;;;;;;5.01;100.00;96305.94;5096416;28;20278;-56
2022/04/17 03:32:36;;;;;;;8.40;6.53;;;;;;;4.99;100.00;96308.22;5096635;28;20214;-56
2022/04/17 03:35:02;;;;;;;9.57;6.73;;;;;;;4.92;100.00;96305.31;5096632;28;20192;-56
2022/04/17 03:37:27;;;;;;;6.80;6.07;;;;;;;4.76;100.00;96307.16;5096895;28;20176;-53
2022/04/17 03:39:53;;;;;;;6.83;6.00;;;;;;;4.58;100.00;96313.97;5097297;28;20195;-58
2022/04/17 03:42:20;;;;;;;8.63;6.37;;;;;;;4.64;100.00;96304.50;5097115;28;20180;-52
2022/04/17 03:44:46;;;;;;;8.43;6.87;;;;;;;4.81;100.00;96309.63;5096448;28;20242;-55
2022/04/17 03:47:12;;;;;;;8.17;6.53;;;;;;;4.71;100.00;96297.38;5096651;28;20273;-53
2022/04/17 03:49:37;;;;;;;7.40;6.37;;;;;;;4.39;100.00;96294.84;5096299;28;20185;-55
2022/04/17 03:52:03;;;;;;;8.80;6.20;;;;;;;4.59;100.00;96302.03;5096565;28;20176;-54
2022/04/17 03:54:28;;;;;;;8.80;6.37;;;;;;;4.58;100.00;96298.53;5096453;28;20189;-54
2022/04/17 03:56:54;;;;;;;8.30;6.60;;;;;;;4.60;100.00;96298.19;5096818;28;20177;-63
2022/04/17 03:59:20;;;;;;;10.43;7.70;;;;;;;4.51;100.00;96294.84;5096387;28;20259;-63
2022/04/17 04:01:48;;;;;;;9.43;7.50;;;;;;;4.59;100.00;96296.63;5096128;28;20178;-64
2022/04/17 04:04:17;;;;;;;9.97;6.60;;;;;;;4.55;100.00;96290.34;5096816;28;20181;-64
2022/04/17 04:06:43;;;;;;;10.17;6.87;;;;;;;4.59;100.00;96291.22;5096124;28;20184;-63
2022/04/17 04:09:08;;;;;;;8.97;6.70;;;;;;;4.57;100.00;96293.47;5096254;28;20189;-64
2022/04/17 04:11:33;;;;;;;10.00;7.30;;;;;;;4.53;100.00;96293.38;5096767;28;20177;-64
2022/04/17 04:13:59;;;;;;;8.93;6.07;;;;;;;4.52;100.00;96291.00;5096361;28;20203;-64
2022/04/17 04:16:24;;;;;;;9.60;6.70;;;;;;;4.51;100.00;96295.63;5096184;28;20187;-63
2022/04/17 04:18:50;;;;;;;10.47;7.40;;;;;;;4.59;100.00;96296.63;5097151;28;20189;-63
2022/04/17 04:21:15;;;;;;;10.80;8.23;;;;;;;4.58;100.00;96300.44;5102973;28;20185;-62
2022/04/17 04:23:41;;;;;;;7.87;6.93;;;;;;;4.54;100.00;96302.25;5102709;28;20177;-62
2022/04/17 04:26:07;;;;;;;8.53;5.90;;;;;;;4.60;100.00;96303.59;5102358;28;20211;-62
2022/04/17 04:28:38;;;;;;;6.90;5.70;;;;;;;4.61;100.00;96305.16;5102818;28;20201;-62
2022/04/17 04:31:07;;;;;;;8.17;6.37;;;;;;;4.68;100.00;96298.06;5102729;28;20180;-62
2022/04/17 04:33:38;;;;;;;8.53;6.13;;;;;;;4.95;100.00;96299.22;5103239;28;20193;-61
2022/04/17 04:36:04;;;;;;;8.53;6.43;;;;;;;5.20;100.00;96306.06;5103206;28;20188;-60
2022/04/17 04:38:30;;;;;;;7.07;5.73;;;;;;;5.41;100.00;96310.16;5102422;28;20650;-60
2022/04/17 04:40:56;;;;;;;8.23;6.30;;;;;;;5.86;100.00;96307.03;5102863;28;20189;-60
2022/04/17 04:43:22;;;;;;;9.03;5.87;;;;;;;6.27;97.23;96306.50;5102990;28;20183;-60
2022/04/17 04:46:06;;;;;;;6.97;5.63;;;;;;;6.83;94.09;96296.84;5102516;28;20180;-60
2022/04/17 04:51:29;;;;;;;7.57;6.10;;;;;;;7.50;86.37;96295.47;5121080;28;20180;-59
2022/04/17 04:53:56;;;;;;;7.53;6.00;;;;;;;7.68;85.59;96291.88;5103004;28;20225;-64
2022/04/17 04:56:22;;;;;;;6.50;5.33;;;;;;;7.66;83.35;96294.19;5103069;28;20187;-59
2022/04/17 04:58:48;;;;;;;6.80;5.40;;;;;;;8.04;81.99;96296.78;5102462;28;20272;-59
2022/04/17 05:01:14;;;;;;;6.57;5.30;;;;;;;8.31;79.22;96295.66;5102769;28;20203;-59
2022/04/17 05:03:40;;;;;;;9.27;5.80;;;;;;;8.66;77.71;96296.19;5103066;28;20176;-59
2022/04/17 05:06:06;;;;;;;10.03;7.90;;;;;;;9.13;75.81;96290.16;5102802;28;20188;-59
2022/04/17 05:08:31;;;;;;;9.97;8.27;;;;;;;9.57;72.60;96296.50;5102396;28;20293;-61
2022/04/17 05:10:57;;;;;;;12.03;8.27;;;;;;;9.87;70.89;96291.72;5102038;28;20193;-57
2022/04/17 05:13:22;;;;;;;7.47;6.57;;;;;;;9.86;70.72;96288.22;5102275;28;20188;-62
2022/04/17 05:15:48;;;;;;;7.50;5.97;;;;;;;10.19;67.46;96286.56;5102223;28;20194;-60
2022/04/17 05:18:14;;;;;;;7.53;6.00;;;;;;;10.27;67.36;96293.66;5102082;28;20184;-61
2022/04/17 05:20:39;;;;;;;7.30;5.53;;;;;;;10.84;63.70;96298.28;5102257;28;20221;-61
2022/04/17 05:23:17;;;;;;;6.73;5.70;;;;;;;11.47;62.99;96287.66;5101922;28;20196;-62
2022/04/17 05:25:43;;;;;;;6.07;5.10;;;;;;;11.81;59.34;96286.19;5102201;28;20242;-62
2022/04/17 05:28:09;;;;;;;7.30;5.70;;;;;;;11.69;57.52;96289.28;5101738;28;20239;-54
2022/04/17 05:30:34;;;;;;;8.27;5.50;;;;;;;11.73;58.46;96290.06;5100882;28;20186;-64
2022/04/17 05:33:00;;;;;;;6.53;5.93;;;;;;;12.00;57.71;96283.84;5098473;28;20706;-62
2022/04/17 05:35:25;;;;;;;7.60;5.70;;;;;;;12.25;56.04;96289.34;5098639;28;20182;-61
2022/04/17 05:37:50;;;;;;;5.73;5.10;;;;;;;12.14;55.93;96288.56;5098647;28;20246;-61
2022/04/17 05:40:16;;;;;;;5.87;5.23;;;;;;;12.32;54.39;96290.09;5098502;28;20211;-60
2022/04/17 05:42:41;;;;;;;5.37;4.87;;;;;;;12.48;54.48;96295.97;5098306;28;20259;-61
2022/04/17 05:45:07;;;;;;;5.60;5.10;;;;;;;12.80;53.20;96284.97;5098218;28;20204;-60
2022/04/17 05:47:32;;;;;;;5.53;5.00;;;;;;;12.71;52.09;96292.78;5098055;28;20207;-62
2022/04/17 05:49:59;;;;;;;5.83;5.20;;;;;;;13.16;51.58;96289.19;5098270;28;20188;-62
2022/04/17 05:52:24;;;;;;;5.73;5.00;;;;;;;12.71;50.75;96287.31;5098312;28;20184;-61
2022/04/17 05:54:50;;;;;;;8.97;6.27;;;;;;;13.92;49.37;96284.50;5098212;28;20194;-61
2022/04/17 05:57:15;;;;;;;5.57;5.07;;;;;;;13.48;49.50;96284.34;5098689;28;20191;-62
2022/04/17 05:59:41;;;;;;;5.20;4.70;;;;;;;12.76;49.75;96281.44;5098104;28;20196;-61
2022/04/17 06:02:13;;;;;;;5.30;4.80;;;;;;;12.66;51.29;96276.75;5098189;28;20212;-60
2022/04/17 06:04:38;;;;;;;5.43;4.93;;;;;;;13.53;48.84;96292.16;5098535;28;20196;-60
2022/04/17 06:07:04;;;;;;;5.83;4.13;;;;;;;13.45;50.53;96293.38;5097961;28;20213;-60
2022/04/17 06:09:29;;;;;;;4.90;4.40;;;;;;;12.90;49.85;96286.91;5098014;28;20185;-61
2022/04/17 06:11:54;;;;;;;6.57;4.33;;;;;;;13.91;47.88;96290.38;5098077;28;20194;-62
2022/04/17 06:14:20;;;;;;;5.43;4.47;;;;;;;14.16;46.59;96286.25;5098247;28;20186;-61
2022/04/17 06:16:47;;;;;;;5.20;4.50;;;;;;;14.99;44.62;96289.47;5097899;28;20231;-62
2022/04/17 06:19:13;;;;;;;5.13;4.63;;;;;;;15.62;44.28;96288.72;5097748;28;20184;-63
2022/04/17 06:21:38;;;;;;;6.40;4.77;;;;;;;15.81;43.05;96290.06;5097913;28;20186;-62
2022/04/17 06:24:04;;;;;;;5.57;4.30;;;;;;;14.74;43.45;96286.19;5097970;28;20204;-59
2022/04/17 06:26:29;;;;;;;5.27;4.50;;;;;;;14.96;43.04;96279.28;5097754;28;20253;-59
2022/04/17 06:28:55;;;;;;;4.57;4.17;;;;;;;15.66;43.27;96278.44;5097738;28;20215;-60
2022/04/17 06:31:20;;;;;;;4.47;4.07;;;;;;;15.90;41.81;96293.84;5097722;28;20190;-59
2022/04/17 06:33:45;;;;;;;4.70;4.20;;;;;;;16.71;39.58;96280.78;5097532;28;20589;-59
2022/04/17 06:36:10;;;;;;;6.70;4.33;;;;;;;16.75;39.88;96282.25;5115629;28;20578;-59
2022/04/17 06:38:36;;;;;;;4.90;4.40;;;;;;;16.55;39.14;96284.19;5098108;28;20184;-60
2022/04/17 06:41:01;;;;;;;4.97;4.17;;;;;;;17.50;38.57;96274.94;5097494;28;20184;-59
2022/04/17 06:43:26;;;;;;;4.50;4.10;;;;;;;17.44;38.42;96279.38;5096471;28;20194;-56
2022/04/17 06:45:52;;;;;;;5.03;4.03;;;;;;;17.52;37.61;96280.03;5097594;28;20209;-59
2022/04/17 06:48:22;;;;;;;5.30;4.30;;;;;;;18.47;36.42;96273.16;5097110;28;20200;-59
2022/04/17 06:50:49;;;;;;;4.73;4.30;;;;;;;16.75;37.61;96287.78;5097350;28;20221;-59
2022/04/17 06:53:15;;;;;;;4.67;4.03;;;;;;;18.13;37.50;96275.50;5097777;28;20172;-59
2022/04/17 06:55:41;;;;;;;4.13;3.83;;;;;;;19.20;34.64;96278.75;5097856;28;20275;-59
2022/04/17 06:58:09;;;;;;;5.73;3.97;;;;;;;18.79;33.18;96267.56;5097207;28;20332;-59
2022/04/17 07:00:36;;;;;;;4.97;4.40;;;;;;;21.00;32.05;96267.25;5097350;28;20183;-59
2022/04/17 07:03:02;;;;;;;4.13;3.70;;;;;;;20.56;31.73;96273.09;5097627;28;20175;-63
2022/04/17 07:05:27;;;;;;;4.93;4.47;;;;;;;20.70;31.15;96278.97;5097379;28;20191;-62
2022/04/17 07:08:04;;;;;;;4.10;3.70;;;;;;;20.58;31.54;96268.63;5096776;28;20219;-63
2022/04/17 07:10:31;;;;;;;4.23;3.67;;;;;;;20.54;31.07;96273.53;5097748;28;20188;-62
2022/04/17 07:12:57;;;;;;;4.30;3.90;;;;;;;18.81;32.13;96281.78;5097162;28;20183;-63
2022/04/17 07:15:24;;;;;;;3.50;3.20;;;;;;;19.07;30.70;96277.91;5096745;28;20184;-62
2022/04/17 07:17:50;;;;;;;4.83;4.17;;;;;;;17.59;33.37;96285.41;5097476;28;20183;-59
2022/04/17 07:20:16;;;;;;;4.77;4.27;;;;;;;18.14;32.57;96277.09;5096850;28;20195;-59
2022/04/17 07:22:42;;;;;;;4.10;3.57;;;;;;;19.86;30.62;96278.84;5096929;28;20188;-60
2022/04/17 07:25:09;;;;;;;4.57;3.60;;;;;;;17.91;31.09;96291.00;5097120;28;20210;-60
2022/04/17 07:27:36;;;;;;;3.80;3.50;;;;;;;18.67;30.78;96276.59;5096754;28;20200;-61
2022/04/17 07:30:09;;;;;;;3.70;3.40;;;;;;;18.83;30.87;96271.06;5096672;28;20180;-60
2022/04/17 07:32:34;;;;;;;4.30;3.47;;;;;;;18.34;30.54;96283.31;5097333;28;20194;-62
2022/04/17 07:35:00;;;;;;;4.67;3.67;;;;;;;18.61;30.04;96270.03;5096859;28;20176;-61
2022/04/17 07:37:31;;;;;;;4.67;3.27;;;;;;;18.39;29.87;96266.25;5096723;28;20187;-61
2022/04/17 07:39:56;;;;;;;3.73;3.43;;;;;;;19.01;29.65;96285.97;5097489;28;20186;-57
2022/04/17 07:42:21;;;;;;;4.73;3.70;;;;;;;18.27;30.07;96275.19;5097134;28;20205;-56
2022/04/17 07:44:48;;;;;;;3.80;3.20;;;;;;;18.46;30.25;96272.38;5096784;28;20191;-58
2022/04/17 07:47:14;;;;;;;4.07;3.67;;;;;;;19.09;29.04;96269.97;5096912;28;20204;-58
2022/04/17 07:49:40;;;;;;;4.07;3.67;;;;;;;19.22;29.68;96268.00;5096800;28;20214;-56
2022/04/17 07:52:06;;;;;;;6.47;3.77;;;;;;;18.79;28.77;96278.66;5096978;28;20227;-53
2022/04/17 07:54:31;;;;;;;3.73;3.43;;;;;;;18.37;30.14;96272.22;5095746;28;20175;-56
2022/04/17 07:56:57;;;;;;;5.17;3.53;;;;;;;20.58;28.32;96262.34;5096513;28;20184;-63
2022/04/17 07:59:24;;;;;;;4.37;3.27;;;;;;;20.28;28.18;96260.91;5096278;28;20275;-60
2022/04/17 08:01:50;;;;;;;3.70;3.40;;;;;;;19.82;28.68;96266.31;5096494;28;20195;-60
2022/04/17 08:04:16;;;;;;;3.77;3.37;;;;;;;20.58;27.23;96267.88;5096556;28;20176;-60
2022/04/17 08:06:41;;;;;;;3.73;3.43;;;;;;;20.17;27.05;96263.25;5096199;28;20188;-61
2022/04/17 08:09:06;;;;;;;3.97;3.67;;;;;;;19.19;29.17;96260.56;5096136;28;20184;-60
2022/04/17 08:11:32;;;;;;;4.37;3.50;;;;;;;19.91;28.34;96258.09;5096611;28;20192;-60
2022/04/17 08:13:57;;;;;;;5.03;3.40;;;;;;;20.88;27.72;96258.94;5096096;28;20660;-62
2022/04/17 08:16:23;;;;;;;3.70;3.40;;;;;;;20.41;28.29;96258.91;5096357;28;20187;-56
2022/04/17 08:18:49;;;;;;;3.73;3.30;;;;;;;22.25;26.63;96247.06;5095761;28;20206;-55
2022/04/17 08:21:16;;;;;;;3.50;3.20;;;;;;;21.14;26.43;96266.75;5096462;28;20191;-57
2022/04/17 08:23:41;;;;;;;3.57;3.27;;;;;;;20.69;27.38;96246.84;5096093;28;20183;-56
2022/04/17 08:26:07;;;;;;;3.90;3.40;;;;;;;19.37;27.99;96255.34;5096037;28;20218;-57
2022/04/17 08:28:32;;;;;;;3.33;3.10;;;;;;;18.42;30.36;96270.88;5095714;28;20672;-55
2022/04/17 08:30:58;;;;;;;6.93;3.60;;;;;;;18.94;28.97;96252.16;5095996;28;20233;-55
2022/04/17 08:33:26;;;;;;;4.03;3.57;;;;;;;19.34;29.21;96250.69;5095713;28;20190;-62
2022/04/17 08:35:54;;;;;;;4.37;3.47;;;;;;;18.93;29.22;96239.53;5096269;28;20328;-63
2022/04/17 08:38:19;;;;;;;3.93;3.63;;;;;;;19.22;29.35;96260.47;5095855;28;20199;-62
2022/04/17 08:40:45;;;;;;;3.90;3.27;;;;;;;19.87;28.96;96236.03;5096053;28;20192;-60
2022/04/17 08:43:11;;;;;;;3.70;3.27;;;;;;;19.35;28.42;96247.44;5095650;28;20521;-62
2022/04/17 08:45:37;;;;;;;3.80;3.40;;;;;;;20.14;28.67;96239.16;5095876;28;20192;-62
2022/04/17 08:48:03;;;;;;;4.03;3.57;;;;;;;20.72;27.96;96232.09;5095799;28;20749;-62
2022/04/17 08:50:30;;;;;;;4.07;3.40;;;;;;;19.31;29.02;96243.25;5095736;28;20238;-58
2022/04/17 08:52:58;;;;;;;3.83;3.50;;;;;;;18.04;29.91;96253.22;5095702;28;20279;-54
2022/04/17 08:55:24;;;;;;;4.10;3.50;;;;;;;18.20;30.25;96231.09;5095502;28;20184;-61
2022/04/17 08:57:49;;;;;;;5.03;3.80;;;;;;;18.37;29.82;96235.47;5096334;28;20183;-61
2022/04/17 09:00:17;;;;;;;4.90;3.77;;;;;;;18.85;29.51;96229.84;5095518;28;20202;-61
2022/04/17 09:02:43;;;;;;;3.80;3.40;;;;;;;20.10;28.14;96221.06;5095382;28;20264;-61
2022/04/17 09:05:10;;;;;;;4.10;3.50;;;;;;;19.99;27.77;96221.38;5095460;28;20188;-61
2022/04/17 09:07:40;;;;;;;3.63;3.30;;;;;;;19.62;28.10;96218.59;5098421;28;20204;-61
2022/04/17 09:10:06;;;;;;;4.77;3.70;;;;;;;18.67;28.79;96226.78;5098913;28;20195;-57
2022/04/17 09:12:32;;;;;;;3.60;3.30;;;;;;;18.77;29.62;96209.13;5098886;28;20632;-55
2022/04/17 09:14:57;;;;;;;4.17;3.70;;;;;;;19.07;29.12;96200.38;5098844;28;20186;-56
2022/04/17 09:17:33;;;;;;;4.00;3.60;;;;;;;19.66;28.30;96203.41;5098799;28;20183;-55
2022/04/17 09:19:59;;;;;;;4.47;3.50;;;;;;;19.36;28.79;96199.16;5099327;28;20191;-56
2022/04/17 09:22:26;;;;;;;4.03;3.50;;;;;;;18.23;30.36;96203.38;5098882;28;20628;-55
2022/04/17 09:24:51;;;;;;;4.67;3.43;;;;;;;19.22;28.75;96207.06;5099061;28;20267;-55
2022/04/17 09:27:16;;;;;;;4.10;3.57;;;;;;;18.62;29.63;96196.88;5099066;28;20299;-62
2022/04/17 09:29:42;;;;;;;3.90;3.50;;;;;;;18.31;29.72;96192.91;5098563;28;20191;-59
2022/04/17 09:32:08;;;;;;;3.37;2.93;;;;;;;21.04;27.10;96179.00;5098950;28;20198;-61
2022/04/17 09:34:52;;;;;;;4.03;3.70;;;;;;;18.57;28.29;96183.53;5098861;28;20222;-61
2022/04/17 09:37:19;;;;;;;3.80;3.47;;;;;;;19.05;27.76;96180.66;5098240;28;20548;-62
2022/04/17 09:39:46;;;;;;;4.00;3.70;;;;;;;19.75;27.19;96178.59;5098642;28;20195;-62
2022/04/17 09:42:12;;;;;;;3.87;3.20;;;;;;;21.15;26.56;96162.72;5098489;28;20188;-61
2022/04/17 09:44:47;;;;;;;3.50;3.20;;;;;;;20.07;27.26;96167.22;5098317;28;20196;-60
2022/04/17 09:47:26;;;;;;;4.10;3.70;;;;;;;19.84;28.08;96159.28;5098772;28;20286;-53
2022/04/17 09:50:03;;;;;;;3.67;3.37;;;;;;;21.83;25.01;96156.97;5098722;28;20187;-54
2022/04/17 09:52:31;;;;;;;3.67;3.37;;;;;;;19.92;27.49;96149.50;5098438;28;20184;-51
2022/04/17 09:54:58;;;;;;;4.03;3.60;;;;;;;21.10;26.94;96143.88;5116299;28;20201;-54
2022/04/17 09:57:41;;;;;;;3.70;3.40;;;;;;;21.82;25.67;96149.06;5097993;28;20183;-50
2022/04/17 10:00:11;;;;;;;3.80;3.40;;;;;;;19.82;26.08;96136.78;5098531;28;20243;-54
2022/04/17 10:02:40;;;;;;;3.40;3.10;;;;;;;18.95;27.78;96154.81;5098104;28;20232;-55
2022/04/17 10:05:08;;;;;;;4.03;3.63;;;;;;;18.79;27.18;96140.25;5098387;28;20192;-61
2022/04/17 10:07:41;;;;;;;3.83;3.43;;;;;;;20.40;26.41;96124.13;5098015;28;20206;-57
2022/04/17 10:10:08;;;;;;;3.83;3.43;;;;;;;20.36;26.74;96122.72;5097812;28;20709;-57
2022/04/17 10:12:37;;;;;;;4.97;3.70;;;;;;;19.60;27.04;96143.44;5098373;28;20218;-57
2022/04/17 10:15:07;;;;;;;4.33;3.30;;;;;;;19.45;28.04;96132.03;5098082;28;20257;-57
2022/04/17 10:17:34;;;;;;;4.53;3.70;;;;;;;19.01;28.11;96124.59;5097950;28;20183;-57
2022/04/17 10:20:06;;;;;;;4.43;3.60;;;;;;;19.30;27.49;96114.25;5097894;28;20183;-58
2022/04/17 10:22:36;;;;;;;4.00;3.60;;;;;;;19.28;28.06;96100.09;5098472;28;20183;-59
2022/04/17 10:25:09;;;;;;;3.60;3.40;;;;;;;20.42;27.14;96099.50;5097865;28;20302;-60
2022/04/17 10:27:42;;;;;;;4.00;3.70;;;;;;;19.69;27.74;96096.41;5097738;28;20200;-59
2022/04/17 10:30:11;;;;;;;4.10;3.80;;;;;;;19.05;28.27;96101.13;5098051;28;20188;-60
2022/04/17 10:33:03;;;;;;;4.53;3.80;;;;;;;19.29;27.92;96107.16;5097792;28;20192;-59
2022/04/17 10:35:44;;;;;;;4.47;3.70;;;;;;;18.32;29.75;96086.59;5097613;28;20195;-59
2022/04/17 10:38:22;;;;;;;4.67;4.27;;;;;;;21.54;27.69;96084.19;5097953;28;20189;-59
2022/04/17 10:41:08;;;;;;;4.63;3.83;;;;;;;21.47;26.55;96078.91;5098109;28;20191;-58
2022/04/17 10:43:42;;;;;;;4.83;4.43;;;;;;;21.15;27.11;96084.13;5097847;28;20187;-59
2022/04/17 10:46:18;;;;;;;4.07;3.60;;;;;;;19.81;28.82;96076.97;5097895;28;20243;-59
2022/04/17 10:48:51;;;;;;;4.23;3.73;;;;;;;19.35;29.75;96066.63;5097422;28;20736;-59
2022/04/17 10:51:27;;;;;;;4.30;3.90;;;;;;;20.16;28.04;96061.97;5097654;28;20188;-59
2022/04/17 10:54:03;;;;;;;4.17;3.77;;;;;;;21.21;26.16;96060.09;5115360;28;20210;-59
2022/04/17 10:56:36;;;;;;;4.20;3.80;;;;;;;20.21;26.39;96047.50;5097545;28;20191;-59
2022/04/17 10:59:06;;;;;;;4.73;4.33;;;;;;;20.58;27.04;96063.22;5097099;28;20179;-61
2022/04/17 11:01:43;;;;;;;5.03;3.93;;;;;;;20.57;27.25;96045.03;5097596;28;20268;-59
2022/04/17 11:04:29;;;;;;;4.60;4.13;;;;;;;21.63;27.88;96039.72;5097732;28;20233;-54
2022/04/17 11:07:04;;;;;;;6.03;4.90;;;;;;;21.19;27.01;96051.44;5097543;28;20213;-54
2022/04/17 11:09:30;;;;;;;3.93;3.57;;;;;;;20.40;26.45;96051.97;5097840;28;20174;-54
2022/04/17 11:12:06;;;;;;;4.20;3.80;;;;;;;22.31;24.79;96050.38;5097495;28;20308;-54
2022/04/17 11:14:32;;;;;;;5.47;4.60;;;;;;;22.72;25.32;96064.94;5097286;28;20570;-54
2022/04/17 11:17:04;;;;;;;4.53;3.60;;;;;;;20.93;25.72;96061.97;5096978;28;20241;-57
2022/04/17 11:19:31;;;;;;;3.87;3.43;;;;;;;22.56;24.22;96051.31;5097538;28;20209;-58
2022/04/17 11:22:00;;;;;;;4.33;3.97;;;;;;;21.42;26.35;96054.47;5097037;28;20652;-57
2022/04/17 11:24:27;;;;;;;4.93;4.40;;;;;;;19.40;28.59;96057.75;5096426;28;20256;-57
2022/04/17 11:26:52;;;;;;;4.70;4.20;;;;;;;19.04;29.16;96054.47;5096944;28;20187;-57
2022/04/17 11:29:40;;;;;;;5.60;4.30;;;;;;;17.52;30.47;96050.78;5096056;28;20187;-58
2022/04/17 11:32:17;;;;;;;4.63;4.00;;;;;;;17.35;30.67;96049.19;5096670;28;20183;-58
2022/04/17 11:34:52;;;;;;;4.97;3.77;;;;;;;16.81;31.52;96048.03;5096768;28;20187;-58
2022/04/17 11:37:18;;;;;;;4.57;3.50;;;;;;;15.94;32.69;96052.13;5097251;28;20231;-54
2022/04/17 11:39:43;;;;;;;4.87;3.90;;;;;;;15.97;33.04;96048.53;5096974;28;20192;-60
2022/04/17 11:42:12;;;;;;;3.50;3.20;;;;;;;16.26;32.09;96046.81;5096688;28;20230;-60
2022/04/17 11:44:41;;;;;;;4.53;3.77;;;;;;;15.32;33.16;96049.22;5096725;28;20207;-59
2022/04/17 11:47:10;;;;;;;3.77;3.47;;;;;;;15.75;33.48;96039.09;5096279;28;20218;-60